createdAt,value
2023-03-26T00:00:13.299Z,98144.97
2023-03-26T00:01:23.925Z,98144.09
2023-03-26T00:02:29.998Z,98126.72
2023-03-26T00:03:34.778Z,98147.53
2023-03-26T00:04:38.577Z,98147.53
2023-03-26T00:05:41.321Z,98147.53
2023-03-26T00:06:44.909Z,98143.22
2023-03-26T00:07:48.928Z,98150.94
2023-03-26T00:08:53.366Z,98149.22
2023-03-26T00:09:56.123Z,98147.47
2023-03-26T00:11:01.052Z,98151.78
2023-03-26T00:12:05.087Z,98150.03
2023-03-26T00:13:08.433Z,98150.91
2023-03-26T00:14:14.219Z,98147.44
2023-03-26T00:15:16.832Z,98141.41
2023-03-26T00:16:22.452Z,98154.28
2023-03-26T00:17:25.140Z,98152.56
2023-03-26T00:18:31.730Z,98153.41
2023-03-26T00:19:34.390Z,98153.41
2023-03-26T00:20:38.540Z,98163.72
2023-03-26T00:21:41.687Z,98164.56
2023-03-26T00:22:45.774Z,98163.72
2023-03-26T00:23:49.469Z,98149.91
2023-03-26T00:24:52.642Z,98151.66
2023-03-26T00:25:56.485Z,98153.25
2023-03-26T00:27:01.198Z,98151.59
2023-03-26T00:28:04.374Z,98149.91
2023-03-26T00:29:10.012Z,98155.94
2023-03-26T00:30:13.118Z,98149.84
2023-03-26T00:31:17.070Z,98158.47
2023-03-26T00:32:21.116Z,98155.00
2023-03-26T00:33:25.037Z,98153.28
2023-03-26T00:34:27.496Z,98158.41
2023-03-26T00:35:31.394Z,98156.69
2023-03-26T00:36:36.339Z,98161.88
2023-03-26T00:37:43.286Z,98160.13
2023-03-26T00:38:47.217Z,98162.69
2023-03-26T00:39:50.800Z,98160.09
2023-03-26T00:40:53.591Z,98166.13
2023-03-26T00:41:57.388Z,98161.78
2023-03-26T00:42:59.888Z,98169.56
2023-03-26T00:44:03.682Z,98166.97
2023-03-26T00:45:06.460Z,98170.41
2023-03-26T00:46:10.061Z,98175.56
2023-03-26T00:47:13.416Z,98172.97
2023-03-26T00:48:19.514Z,98178.13
2023-03-26T00:49:22.189Z,98177.25
2023-03-26T00:50:25.865Z,98182.41
2023-03-26T00:51:28.442Z,98181.53
2023-03-26T00:52:32.214Z,98179.78
2023-03-26T00:53:34.651Z,98184.94
2023-03-26T00:54:38.470Z,98192.75
2023-03-26T00:55:41.748Z,98185.81
2023-03-26T00:56:45.274Z,98178.06
2023-03-26T00:57:47.763Z,98178.03
2023-03-26T00:58:51.627Z,98178.91
2023-03-26T00:59:54.210Z,98188.41
2023-03-26T01:01:00.904Z,98190.13
2023-03-26T01:02:05.213Z,98189.22
2023-03-26T01:03:07.905Z,98184.94
2023-03-26T01:04:32.087Z,98187.53
2023-03-26T01:05:53.369Z,98184.13
2023-03-26T01:06:58.716Z,98185.81
2023-03-26T01:08:02.188Z,98184.91
2023-03-26T01:09:12.868Z,98184.06
2023-03-26T01:10:15.354Z,98188.34
2023-03-26T01:11:22.165Z,98190.06
2023-03-26T01:12:28.122Z,98188.31
2023-03-26T01:13:35.341Z,98187.47
2023-03-26T01:14:38.796Z,98189.22
2023-03-26T01:15:42.552Z,98197.75
2023-03-26T01:16:50.246Z,98196.06
2023-03-26T01:17:58.057Z,98194.34
2023-03-26T01:19:02.378Z,98184.84
2023-03-26T01:20:15.220Z,98202.06
2023-03-26T01:21:23.602Z,98196.00
2023-03-26T01:22:27.962Z,98196.91
2023-03-26T01:23:39.544Z,98197.75
2023-03-26T01:24:46.451Z,98199.44
2023-03-26T01:25:56.276Z,98205.44
2023-03-26T01:27:11.163Z,98208.03
2023-03-26T01:28:14.432Z,98204.56
2023-03-26T01:29:23.954Z,98208.03
2023-03-26T01:30:35.081Z,98209.72
2023-03-26T01:31:48.593Z,98205.38
2023-03-26T01:32:59.310Z,98207.97
2023-03-26T01:34:12.653Z,98211.41
2023-03-26T01:35:29.626Z,98214.00
2023-03-26T01:36:40.797Z,98213.94
2023-03-26T01:37:53.948Z,98212.22
2023-03-26T01:39:04.741Z,98223.38
2023-03-26T01:40:12.611Z,98210.47
2023-03-26T01:41:22.583Z,98214.75
2023-03-26T01:42:28.475Z,98223.38
2023-03-26T01:43:37.805Z,98221.63
2023-03-26T01:44:48.410Z,98227.66
2023-03-26T01:45:53.972Z,98227.66
2023-03-26T01:46:59.234Z,98230.25
2023-03-26T01:48:03.260Z,98220.81
2023-03-26T01:49:06.839Z,98234.56
2023-03-26T01:50:11.403Z,98225.09
2023-03-26T01:51:25.655Z,98232.88
2023-03-26T01:52:29.248Z,98232.00
2023-03-26T01:53:33.666Z,98224.25
2023-03-26T01:54:37.362Z,98232.06
2023-03-26T01:55:49.814Z,98232.06
2023-03-26T01:57:04.445Z,98238.03
2023-03-26T01:58:12.964Z,98232.00
2023-03-26T01:59:33.975Z,98235.50
2023-03-26T02:00:42.635Z,98235.47
2023-03-26T02:01:55.036Z,98230.31
2023-03-26T02:03:18.034Z,98236.28
2023-03-26T02:04:26.778Z,98236.28
2023-03-26T02:05:35.442Z,98234.59
2023-03-26T02:06:45.154Z,98236.28
2023-03-26T02:07:54.473Z,98238.88
2023-03-26T02:09:01.227Z,98233.69
2023-03-26T02:10:10.604Z,98231.13
2023-03-26T02:11:16.655Z,98234.56
2023-03-26T02:12:22.871Z,98230.25
2023-03-26T02:13:26.084Z,98232.88
2023-03-26T02:14:31.527Z,98216.47
2023-03-26T02:15:34.147Z,98227.66
2023-03-26T02:16:37.841Z,98219.94
2023-03-26T02:17:40.714Z,98225.91
2023-03-26T02:18:45.283Z,98222.41
2023-03-26T02:19:48.324Z,98225.91
2023-03-26T02:20:53.269Z,98218.13
2023-03-26T02:22:00.095Z,98223.25
2023-03-26T02:23:02.564Z,98225.84
2023-03-26T02:24:06.364Z,98228.41
2023-03-26T02:25:10.884Z,98220.69
2023-03-26T02:26:18.733Z,98231.88
2023-03-26T02:27:21.296Z,98231.00
2023-03-26T02:28:24.946Z,98236.13
2023-03-26T02:29:27.856Z,98233.53
2023-03-26T02:30:34.068Z,98238.69
2023-03-26T02:31:36.961Z,98238.69
2023-03-26T02:32:40.784Z,98241.31
2023-03-26T02:33:44.871Z,98236.09
2023-03-26T02:34:48.437Z,98235.28
2023-03-26T02:35:50.995Z,98240.44
2023-03-26T02:36:54.766Z,98249.88
2023-03-26T02:37:57.017Z,98245.53
2023-03-26T02:39:01.231Z,98238.69
2023-03-26T02:40:05.565Z,98246.38
2023-03-26T02:41:09.552Z,98246.41
2023-03-26T02:42:13.553Z,98251.53
2023-03-26T02:43:17.135Z,98249.78
2023-03-26T02:44:19.636Z,98255.88
2023-03-26T02:45:23.431Z,98262.78
2023-03-26T02:46:25.653Z,98255.84
2023-03-26T02:47:29.354Z,98254.97
2023-03-26T02:48:31.716Z,98259.25
2023-03-26T02:49:35.466Z,98259.25
2023-03-26T02:50:39.606Z,98257.50
2023-03-26T02:51:42.267Z,98260.94
2023-03-26T02:52:49.261Z,98251.50
2023-03-26T02:53:53.895Z,98253.22
2023-03-26T02:54:57.438Z,98261.84
2023-03-26T02:56:00.823Z,98260.06
2023-03-26T02:57:04.670Z,98253.22
2023-03-26T02:58:08.795Z,98254.00
2023-03-26T02:59:12.373Z,98259.31
2023-03-26T03:00:15.569Z,98259.31
2023-03-26T03:01:19.223Z,98261.91
2023-03-26T03:02:24.577Z,98268.00
2023-03-26T03:03:30.272Z,98267.13
2023-03-26T03:04:32.763Z,98261.97
2023-03-26T03:05:38.290Z,98259.44
2023-03-26T03:06:40.878Z,98257.69
2023-03-26T03:07:46.784Z,98256.00
2023-03-26T03:08:50.206Z,98256.03
2023-03-26T03:09:53.749Z,98253.50
2023-03-26T03:10:57.951Z,98263.84
2023-03-26T03:12:01.543Z,98259.56
2023-03-26T03:13:06.232Z,98254.44
2023-03-26T03:14:11.303Z,98255.28
2023-03-26T03:15:14.260Z,98251.88
2023-03-26T03:16:18.615Z,98250.16
2023-03-26T03:17:21.331Z,98251.00
2023-03-26T03:18:25.034Z,98247.53
2023-03-26T03:19:27.332Z,98251.94
2023-03-26T03:20:31.163Z,98260.56
2023-03-26T03:21:33.639Z,98259.69
2023-03-26T03:22:37.207Z,98249.34
2023-03-26T03:23:39.867Z,98254.53
2023-03-26T03:24:44.026Z,98252.81
2023-03-26T03:25:47.021Z,98256.28
2023-03-26T03:26:50.540Z,98256.28
2023-03-26T03:27:54.144Z,98251.97
2023-03-26T03:28:58.718Z,98246.84
2023-03-26T03:30:03.118Z,98245.09
2023-03-26T03:31:09.294Z,98252.03
2023-03-26T03:32:11.826Z,98252.91
2023-03-26T03:33:15.629Z,98262.38
2023-03-26T03:34:19.270Z,98262.38
2023-03-26T03:35:21.442Z,98258.09
2023-03-26T03:36:28.078Z,98252.06
2023-03-26T03:37:30.908Z,98248.63
2023-03-26T03:38:34.595Z,98257.25
2023-03-26T03:39:37.208Z,98253.78
2023-03-26T03:40:40.767Z,98257.22
2023-03-26T03:41:43.318Z,98262.44
2023-03-26T03:42:46.926Z,98258.97
2023-03-26T03:43:49.416Z,98265.00
2023-03-26T03:44:53.184Z,98263.25
2023-03-26T03:45:57.809Z,98265.88
2023-03-26T03:47:01.761Z,98263.25
2023-03-26T03:48:04.074Z,98264.13
2023-03-26T03:49:07.588Z,98272.75
2023-03-26T03:50:11.081Z,98271.06
2023-03-26T03:51:14.571Z,98269.31
2023-03-26T03:52:18.304Z,98273.63
2023-03-26T03:53:21.960Z,98267.63
2023-03-26T03:54:24.410Z,98272.81
2023-03-26T03:55:29.011Z,98268.50
2023-03-26T03:56:31.560Z,98261.63
2023-03-26T03:57:35.340Z,98271.09
2023-03-26T03:58:37.550Z,98274.56
2023-03-26T03:59:47.310Z,98280.56
2023-03-26T04:00:51.718Z,98273.69
2023-03-26T04:01:56.638Z,98279.72
2023-03-26T04:02:59.394Z,98281.44
2023-03-26T04:04:03.096Z,98281.44
2023-03-26T04:05:06.259Z,98286.59
2023-03-26T04:06:11.353Z,98288.28
2023-03-26T04:07:13.867Z,98289.13
2023-03-26T04:08:18.079Z,98289.13
2023-03-26T04:09:20.536Z,98289.09
2023-03-26T04:10:24.116Z,98292.53
2023-03-26T04:11:26.764Z,98293.34
2023-03-26T04:12:30.646Z,98301.97
2023-03-26T04:13:33.191Z,98297.63
2023-03-26T04:14:36.839Z,98296.78
2023-03-26T04:15:39.248Z,98301.91
2023-03-26T04:16:42.627Z,98309.66
2023-03-26T04:17:46.488Z,98304.50
2023-03-26T04:18:50.039Z,98296.75
2023-03-26T04:19:53.352Z,98301.09
2023-03-26T04:20:57.016Z,98300.19
2023-03-26T04:22:02.866Z,98297.63
2023-03-26T04:23:06.708Z,98300.19
2023-03-26T04:24:09.348Z,98300.19
2023-03-26T04:25:13.983Z,98301.91
2023-03-26T04:26:19.995Z,98302.84
2023-03-26T04:27:30.582Z,98304.56
2023-03-26T04:28:36.667Z,98309.72
2023-03-26T04:29:44.330Z,98313.19
2023-03-26T04:30:46.760Z,98311.47
2023-03-26T04:31:50.795Z,98309.78
2023-03-26T04:32:58.813Z,98309.75
2023-03-26T04:34:08.607Z,98308.03
2023-03-26T04:35:13.610Z,98311.47
2023-03-26T04:36:18.554Z,98316.63
2023-03-26T04:37:27.732Z,98320.09
2023-03-26T04:38:35.835Z,98313.22
2023-03-26T04:39:39.234Z,98314.97
2023-03-26T04:40:42.759Z,98313.22
2023-03-26T04:41:45.208Z,98312.41
2023-03-26T04:42:48.972Z,98312.38
2023-03-26T04:43:53.360Z,98318.41
2023-03-26T04:44:59.877Z,98319.28
2023-03-26T04:46:03.562Z,98325.31
2023-03-26T04:47:07.203Z,98324.41
2023-03-26T04:48:14.533Z,98321.91
2023-03-26T04:49:18.308Z,98320.19
2023-03-26T04:50:21.136Z,98325.38
2023-03-26T04:51:28.226Z,98321.03
2023-03-26T04:52:31.052Z,98325.41
2023-03-26T04:53:36.879Z,98323.66
2023-03-26T04:54:39.664Z,98321.09
2023-03-26T04:55:49.184Z,98321.97
2023-03-26T04:56:55.542Z,98329.72
2023-03-26T04:58:03.601Z,98323.72
2023-03-26T04:59:08.269Z,98325.44
2023-03-26T05:00:18.950Z,98328.06
2023-03-26T05:01:22.214Z,98326.38
2023-03-26T05:02:26.314Z,98320.38
2023-03-26T05:03:32.093Z,98326.47
2023-03-26T05:04:37.042Z,98328.25
2023-03-26T05:05:40.301Z,98327.41
2023-03-26T05:06:43.941Z,98328.34
2023-03-26T05:07:46.148Z,98331.00
2023-03-26T05:08:49.845Z,98328.47
2023-03-26T05:09:52.005Z,98329.41
2023-03-26T05:10:55.858Z,98322.53
2023-03-26T05:11:58.737Z,98322.59
2023-03-26T05:13:02.333Z,98326.09
2023-03-26T05:14:04.801Z,98327.84
2023-03-26T05:15:10.277Z,98320.16
2023-03-26T05:16:12.827Z,98332.28
2023-03-26T05:17:19.091Z,98326.31
2023-03-26T05:18:21.563Z,98330.69
2023-03-26T05:19:26.563Z,98337.56
2023-03-26T05:20:31.342Z,98335.97
2023-03-26T05:21:35.200Z,98333.38
2023-03-26T05:22:38.806Z,98336.94
2023-03-26T05:23:42.447Z,98338.69
2023-03-26T05:24:44.596Z,98339.59
2023-03-26T05:25:48.505Z,98336.16
2023-03-26T05:26:51.163Z,98343.91
2023-03-26T05:27:54.676Z,98347.38
2023-03-26T05:28:57.206Z,98350.84
2023-03-26T05:30:02.885Z,98351.66
2023-03-26T05:31:07.264Z,98355.97
2023-03-26T05:32:11.699Z,98346.50
2023-03-26T05:33:14.315Z,98357.66
2023-03-26T05:34:17.975Z,98350.75
2023-03-26T05:35:21.963Z,98348.16
2023-03-26T05:36:26.185Z,98350.78
2023-03-26T05:37:31.310Z,98346.50
2023-03-26T05:38:35.887Z,98351.72
2023-03-26T05:39:38.661Z,98357.72
2023-03-26T05:40:42.253Z,98358.50
2023-03-26T05:41:44.434Z,98364.59
2023-03-26T05:42:48.123Z,98362.00
2023-03-26T05:43:51.337Z,98366.28
2023-03-26T05:44:54.848Z,98367.13
2023-03-26T05:45:57.632Z,98369.72
2023-03-26T05:47:01.247Z,98373.13
2023-03-26T05:48:03.982Z,98367.13
2023-03-26T05:49:07.628Z,98375.72
2023-03-26T05:50:11.501Z,98370.53
2023-03-26T05:51:16.929Z,98364.50
2023-03-26T05:52:19.402Z,98369.72
2023-03-26T05:53:24.376Z,98365.38
2023-03-26T05:54:26.988Z,98363.63
2023-03-26T05:55:33.598Z,98368.78
2023-03-26T05:56:36.233Z,98372.25
2023-03-26T05:57:39.785Z,98368.84
2023-03-26T05:58:42.944Z,98367.13
2023-03-26T05:59:46.538Z,98362.84
2023-03-26T06:00:49.044Z,98365.47
2023-03-26T06:01:54.775Z,98372.34
2023-03-26T06:02:57.691Z,98360.25
2023-03-26T06:04:01.588Z,98364.59
2023-03-26T06:05:05.453Z,98364.63
2023-03-26T06:06:09.725Z,98355.19
2023-03-26T06:07:13.811Z,98357.78
2023-03-26T06:08:17.307Z,98371.56
2023-03-26T06:09:19.864Z,98364.78
2023-03-26T06:10:24.048Z,98369.94
2023-03-26T06:11:26.515Z,98368.25
2023-03-26T06:12:30.259Z,98363.06
2023-03-26T06:13:32.404Z,98370.00
2023-03-26T06:14:36.348Z,98370.00
2023-03-26T06:15:38.798Z,98366.63
2023-03-26T06:16:42.492Z,98362.28
2023-03-26T06:17:44.650Z,98363.16
2023-03-26T06:18:48.596Z,98367.50
2023-03-26T06:19:59.459Z,98355.38
2023-03-26T06:21:03.224Z,98366.63
2023-03-26T06:22:06.270Z,98367.59
2023-03-26T06:23:11.398Z,98365.88
2023-03-26T06:24:16.651Z,98364.22
2023-03-26T06:25:19.334Z,98373.78
2023-03-26T06:26:22.929Z,98369.47
2023-03-26T06:27:25.770Z,98365.09
2023-03-26T06:28:29.417Z,98365.19
2023-03-26T06:29:31.715Z,98374.63
2023-03-26T06:30:35.483Z,98369.50
2023-03-26T06:31:37.977Z,98373.78
2023-03-26T06:32:41.913Z,98379.84
2023-03-26T06:33:44.435Z,98374.66
2023-03-26T06:34:48.073Z,98372.91
2023-03-26T06:35:50.437Z,98381.50
2023-03-26T06:36:53.928Z,98387.53
2023-03-26T06:37:56.396Z,98384.03
2023-03-26T06:39:01.503Z,98384.03
2023-03-26T06:40:11.408Z,98389.22
2023-03-26T06:41:16.307Z,98392.66
2023-03-26T06:42:18.478Z,98378.00
2023-03-26T06:43:22.298Z,98386.59
2023-03-26T06:44:24.783Z,98381.41
2023-03-26T06:45:28.427Z,98380.56
2023-03-26T06:46:30.814Z,98378.81
2023-03-26T06:47:35.101Z,98373.59
2023-03-26T06:48:38.058Z,98381.38
2023-03-26T06:49:43.128Z,98388.34
2023-03-26T06:50:47.752Z,98383.94
2023-03-26T06:51:51.423Z,98377.94
2023-03-26T06:52:53.997Z,98380.47
2023-03-26T06:53:57.603Z,98380.47
2023-03-26T06:55:01.962Z,98380.47
2023-03-26T06:56:07.169Z,98382.19
2023-03-26T06:57:11.664Z,98376.19
2023-03-26T06:58:16.959Z,98385.69
2023-03-26T06:59:20.026Z,98384.78
2023-03-26T07:00:24.205Z,98375.25
2023-03-26T07:01:29.332Z,98376.97
2023-03-26T07:02:33.189Z,98375.25
2023-03-26T07:03:35.756Z,98375.25
2023-03-26T07:04:39.537Z,98376.97
2023-03-26T07:05:42.240Z,98383.91
2023-03-26T07:06:46.185Z,98383.03
2023-03-26T07:07:48.823Z,98390.81
2023-03-26T07:08:52.492Z,98387.41
2023-03-26T07:09:54.657Z,98387.41
2023-03-26T07:10:59.730Z,98389.22
2023-03-26T07:12:02.260Z,98387.47
2023-03-26T07:13:06.025Z,98390.94
2023-03-26T07:14:08.508Z,98393.50
2023-03-26T07:15:12.585Z,98392.66
2023-03-26T07:16:15.479Z,98389.22
2023-03-26T07:17:19.103Z,98384.91
2023-03-26T07:18:22.037Z,98382.38
2023-03-26T07:19:25.498Z,98390.13
2023-03-26T07:20:28.628Z,98391.91
2023-03-26T07:21:32.868Z,98389.34
2023-03-26T07:22:36.434Z,98391.09
2023-03-26T07:23:40.547Z,98387.63
2023-03-26T07:24:44.122Z,98388.50
2023-03-26T07:25:47.775Z,98390.28
2023-03-26T07:27:01.689Z,98388.56
2023-03-26T07:28:14.900Z,98386.84
2023-03-26T07:29:24.209Z,98387.72
2023-03-26T07:30:34.024Z,98380.84
2023-03-26T07:31:42.820Z,98386.91
2023-03-26T07:32:54.627Z,98382.56
2023-03-26T07:34:04.734Z,98387.78
2023-03-26T07:35:15.360Z,98387.81
2023-03-26T07:36:26.076Z,98386.97
2023-03-26T07:37:42.145Z,98393.06
2023-03-26T07:39:00.389Z,98393.13
2023-03-26T07:40:11.989Z,98393.16
2023-03-26T07:41:24.386Z,98397.50
2023-03-26T07:42:42.432Z,98392.38
2023-03-26T07:44:04.441Z,98394.19
2023-03-26T07:45:21.233Z,98402.00
2023-03-26T07:46:32.146Z,98396.00
2023-03-26T07:47:37.820Z,98399.53
2023-03-26T07:48:42.987Z,98400.44
2023-03-26T07:49:47.525Z,98396.19
2023-03-26T07:50:51.815Z,98389.25
2023-03-26T07:51:54.841Z,98397.13
2023-03-26T07:52:58.945Z,98399.75
2023-03-26T07:54:04.356Z,98401.50
2023-03-26T07:55:08.618Z,98398.06
2023-03-26T07:56:17.003Z,98391.25
2023-03-26T07:57:29.425Z,98393.03
2023-03-26T07:59:01.699Z,98395.69
2023-03-26T08:00:12.443Z,98396.59
2023-03-26T08:01:24.060Z,98392.31
2023-03-26T08:02:59.044Z,98396.66
2023-03-26T08:04:23.783Z,98397.53
2023-03-26T08:05:32.280Z,98399.31
2023-03-26T08:06:36.862Z,98392.38
2023-03-26T08:07:53.599Z,98390.66
2023-03-26T08:09:06.196Z,98387.28
2023-03-26T08:10:17.528Z,98390.78
2023-03-26T08:11:31.520Z,98387.34
2023-03-26T08:12:42.048Z,98385.66
2023-03-26T08:14:02.198Z,98393.50
2023-03-26T08:15:13.494Z,98390.91
2023-03-26T08:16:24.848Z,98397.91
2023-03-26T08:17:38.251Z,98384.94
2023-03-26T08:18:50.828Z,98388.44
2023-03-26T08:20:11.093Z,98384.97
2023-03-26T08:21:20.926Z,98392.75
2023-03-26T08:22:27.565Z,98386.69
2023-03-26T08:23:50.320Z,98388.44
2023-03-26T08:25:19.070Z,98389.31
2023-03-26T08:26:33.633Z,98383.28
2023-03-26T08:27:41.219Z,98393.72
2023-03-26T08:29:04.069Z,98388.53
2023-03-26T08:30:15.029Z,98387.66
2023-03-26T08:31:20.294Z,98390.28
2023-03-26T08:32:23.836Z,98384.22
2023-03-26T08:33:28.964Z,98383.38
2023-03-26T08:34:32.540Z,98386.88
2023-03-26T08:35:35.508Z,98394.72
2023-03-26T08:36:39.467Z,98380.88
2023-03-26T08:37:42.112Z,98388.69
2023-03-26T08:38:46.886Z,98389.53
2023-03-26T08:39:49.633Z,98386.09
2023-03-26T08:41:40.967Z,98386.13
2023-03-26T08:43:14.886Z,98380.09
2023-03-26T08:45:02.738Z,98381.00
2023-03-26T08:46:45.757Z,98380.13
2023-03-26T08:48:19.747Z,98383.63
2023-03-26T08:49:47.653Z,98386.22
2023-03-26T08:51:28.437Z,98385.38
2023-03-26T08:52:54.912Z,98387.94
2023-03-26T08:54:30.286Z,98389.72
2023-03-26T08:55:46.741Z,98388.84
2023-03-26T08:57:04.064Z,98388.84
2023-03-26T08:59:00.443Z,98388.00
2023-03-26T09:00:43.215Z,98387.09
2023-03-26T09:02:19.777Z,98375.00
2023-03-26T09:03:42.823Z,98375.88
2023-03-26T09:05:20.392Z,98381.13
2023-03-26T09:06:56.934Z,98374.19
2023-03-26T09:08:54.237Z,98367.25
2023-03-26T09:10:46.864Z,98374.22
2023-03-26T09:12:14.580Z,98365.63
2023-03-26T09:13:51.847Z,98369.94
2023-03-26T09:15:21.242Z,98365.63
2023-03-26T09:16:49.344Z,98365.66
2023-03-26T09:18:26.757Z,98374.28
2023-03-26T09:20:06.420Z,98360.44
2023-03-26T09:21:44.592Z,98368.25
2023-03-26T09:23:34.921Z,98362.19
2023-03-26T09:25:32.460Z,98363.06
2023-03-26T09:26:48.249Z,98365.66
2023-03-26T09:28:22.180Z,98364.81
2023-03-26T09:29:54.973Z,98359.63
2023-03-26T09:31:22.408Z,98360.47
2023-03-26T09:33:11.785Z,98363.94
2023-03-26T09:34:29.288Z,98362.22
2023-03-26T09:35:52.408Z,98360.47
2023-03-26T09:36:58.004Z,98354.41
2023-03-26T09:38:07.573Z,98357.88
2023-03-26T09:39:17.526Z,98354.41
2023-03-26T09:40:23.327Z,98354.41
2023-03-26T09:41:37.281Z,98359.63
2023-03-26T09:42:46.026Z,98357.88
2023-03-26T09:44:32.927Z,98359.59
2023-03-26T09:45:53.000Z,98356.13
2023-03-26T09:47:14.003Z,98356.13
2023-03-26T09:48:46.512Z,98354.38
2023-03-26T09:49:55.671Z,98363.03
2023-03-26T09:51:20.666Z,98363.88
2023-03-26T09:53:01.628Z,98360.41
2023-03-26T09:54:17.841Z,98353.50
2023-03-26T09:55:46.662Z,98344.81
2023-03-26T09:56:58.100Z,98345.69
2023-03-26T09:58:46.941Z,98343.94
2023-03-26T10:00:19.166Z,98348.28
2023-03-26T10:01:32.325Z,98343.06
2023-03-26T10:02:58.971Z,98343.97
2023-03-26T10:04:36.100Z,98345.66
2023-03-26T10:06:12.196Z,98349.97
2023-03-26T10:07:43.129Z,98344.75
2023-03-26T10:09:23.940Z,98349.91
2023-03-26T10:10:37.184Z,98344.69
2023-03-26T10:12:03.851Z,98343.81
2023-03-26T10:13:21.950Z,98342.97
2023-03-26T10:14:34.221Z,98342.97
2023-03-26T10:15:54.955Z,98349.88
2023-03-26T10:17:13.760Z,98342.94
2023-03-26T10:18:29.401Z,98343.81
2023-03-26T10:19:43.394Z,98350.75
2023-03-26T10:20:58.438Z,98348.13
2023-03-26T10:22:13.210Z,98341.16
2023-03-26T10:23:28.096Z,98337.66
2023-03-26T10:24:47.881Z,98339.41
2023-03-26T10:26:09.983Z,98340.22
2023-03-26T10:27:38.940Z,98326.28
2023-03-26T10:29:17.562Z,98335.78
2023-03-26T10:30:51.106Z,98334.03
2023-03-26T10:32:07.714Z,98336.59
2023-03-26T10:33:20.760Z,98328.75
2023-03-26T10:34:45.841Z,98330.47
2023-03-26T10:36:02.381Z,98333.03
2023-03-26T10:37:11.925Z,98332.13
2023-03-26T10:38:25.739Z,98332.09
2023-03-26T10:40:01.212Z,98334.72
2023-03-26T10:41:10.544Z,98333.81
2023-03-26T10:42:49.877Z,98325.09
2023-03-26T10:44:19.859Z,98321.66
2023-03-26T10:45:52.387Z,98318.22
2023-03-26T10:47:26.355Z,98313.84
2023-03-26T10:48:54.140Z,98311.25
2023-03-26T10:50:27.956Z,98319.09
2023-03-26T10:51:48.821Z,98314.75
2023-03-26T10:53:00.526Z,98312.13
2023-03-26T10:54:09.840Z,98311.22
2023-03-26T10:55:20.047Z,98311.22
2023-03-26T10:56:27.824Z,98304.22
2023-03-26T10:57:42.365Z,98302.44
2023-03-26T10:58:49.380Z,98300.66
2023-03-26T10:59:55.836Z,98291.94
2023-03-26T11:01:04.038Z,98295.41
2023-03-26T11:02:29.074Z,98291.91
2023-03-26T11:03:52.404Z,98285.78
2023-03-26T11:05:04.958Z,98290.16
2023-03-26T11:06:18.634Z,98288.41
2023-03-26T11:07:28.502Z,98282.34
2023-03-26T11:08:35.927Z,98284.91
2023-03-26T11:09:46.524Z,98287.53
2023-03-26T11:10:57.618Z,98294.53
2023-03-26T11:12:26.321Z,98291.94
2023-03-26T11:13:44.568Z,98291.06
2023-03-26T11:14:53.014Z,98292.84
2023-03-26T11:16:03.330Z,98301.56
2023-03-26T11:17:40.096Z,98292.03
2023-03-26T11:18:50.712Z,98296.38
2023-03-26T11:19:59.215Z,98292.94
2023-03-26T11:21:18.873Z,98292.94
2023-03-26T11:22:35.952Z,98297.25
2023-03-26T11:23:47.709Z,98291.19
2023-03-26T11:25:36.279Z,98290.34
2023-03-26T11:26:50.774Z,98286.84
2023-03-26T11:28:09.632Z,98292.97
2023-03-26T11:29:36.559Z,98287.75
2023-03-26T11:30:47.405Z,98291.25
2023-03-26T11:32:00.943Z,98294.69
2023-03-26T11:33:09.327Z,98292.09
2023-03-26T11:34:16.641Z,98281.63
2023-03-26T11:35:40.562Z,98285.97
2023-03-26T11:36:50.876Z,98285.88
2023-03-26T11:37:55.759Z,98285.78
2023-03-26T11:39:04.612Z,98287.50
2023-03-26T11:40:15.796Z,98283.09
2023-03-26T11:41:23.467Z,98292.59
2023-03-26T11:42:26.391Z,98288.19
2023-03-26T11:43:35.670Z,98292.50
2023-03-26T11:44:42.843Z,98292.47
2023-03-26T11:45:49.202Z,98286.34
2023-03-26T11:46:58.979Z,98292.41
2023-03-26T11:48:09.722Z,98286.25
2023-03-26T11:49:15.053Z,98280.94
2023-03-26T11:50:23.285Z,98283.50
2023-03-26T11:51:32.170Z,98282.50
2023-03-26T11:52:34.844Z,98280.72
2023-03-26T11:53:40.129Z,98280.72
2023-03-26T11:54:49.714Z,98276.38
2023-03-26T11:56:04.293Z,98278.06
2023-03-26T11:57:11.366Z,98278.94
2023-03-26T11:58:30.082Z,98273.69
2023-03-26T11:59:48.926Z,98275.41
2023-03-26T12:00:56.833Z,98271.06
2023-03-26T12:02:17.645Z,98270.16
2023-03-26T12:03:21.101Z,98268.41
2023-03-26T12:04:29.993Z,98261.44
2023-03-26T12:05:50.084Z,98263.09
2023-03-26T12:06:56.812Z,98267.41
2023-03-26T12:08:02.145Z,98262.13
2023-03-26T12:09:04.727Z,98267.31
2023-03-26T12:10:24.135Z,98266.34
2023-03-26T12:11:35.631Z,98268.81
2023-03-26T12:12:41.642Z,98254.88
2023-03-26T12:13:52.190Z,98265.25
2023-03-26T12:14:55.641Z,98257.34
2023-03-26T12:16:02.703Z,98259.91
2023-03-26T12:17:09.874Z,98246.75
2023-03-26T12:18:25.982Z,98251.88
2023-03-26T12:19:37.217Z,98253.59
2023-03-26T12:20:39.734Z,98252.72
2023-03-26T12:21:47.790Z,98252.72
2023-03-26T12:22:52.401Z,98254.44
2023-03-26T12:23:59.285Z,98248.28
2023-03-26T12:25:03.950Z,98255.25
2023-03-26T12:26:17.023Z,98245.66
2023-03-26T12:27:28.629Z,98244.78
2023-03-26T12:28:33.680Z,98250.84
2023-03-26T12:29:37.428Z,98249.09
2023-03-26T12:30:42.528Z,98244.72
2023-03-26T12:32:04.389Z,98248.16
2023-03-26T12:33:14.560Z,98245.44
2023-03-26T12:34:21.391Z,98246.28
2023-03-26T12:35:28.167Z,98248.88
2023-03-26T12:36:33.542Z,98242.78
2023-03-26T12:37:38.857Z,98240.94
2023-03-26T12:38:42.684Z,98241.91
2023-03-26T12:40:08.661Z,98233.97
2023-03-26T12:44:42.500Z,98238.34
2023-03-26T12:44:49.666Z,98237.41
2023-03-26T12:44:56.211Z,98237.47
2023-03-26T12:47:55.431Z,98233.97
2023-03-26T12:47:58.376Z,98229.63
2023-03-26T12:48:44.591Z,98229.53
2023-03-26T12:49:50.380Z,98228.59
2023-03-26T12:51:11.448Z,98221.66
2023-03-26T12:52:38.728Z,98221.56
2023-03-26T12:53:58.200Z,98212.88
2023-03-26T12:55:12.068Z,98219.00
2023-03-26T12:56:24.346Z,98219.09
2023-03-26T12:57:33.786Z,98214.75
2023-03-26T12:58:55.231Z,98214.78
2023-03-26T13:00:11.664Z,98214.84
2023-03-26T13:01:26.647Z,98214.06
2023-03-26T13:03:11.503Z,98214.19
2023-03-26T13:04:38.941Z,98207.22
2023-03-26T13:05:53.344Z,98207.28
2023-03-26T13:07:02.610Z,98209.06
2023-03-26T13:08:32.871Z,98207.34
2023-03-26T13:09:53.222Z,98203.97
2023-03-26T13:11:07.251Z,98204.06
2023-03-26T13:12:26.080Z,98207.63
2023-03-26T13:13:57.198Z,98204.28
2023-03-26T13:15:14.529Z,98198.25
2023-03-26T13:16:26.309Z,98198.41
2023-03-26T13:17:41.476Z,98208.94
2023-03-26T13:18:52.135Z,98207.47
2023-03-26T13:20:12.378Z,98205.81
2023-03-26T13:21:25.304Z,98197.38
2023-03-26T13:22:39.323Z,98196.63
2023-03-26T13:23:52.826Z,98200.19
2023-03-26T13:25:02.065Z,98199.41
2023-03-26T13:26:18.244Z,98199.44
2023-03-26T13:27:38.337Z,98200.38
2023-03-26T13:28:54.741Z,98199.56
2023-03-26T13:30:03.260Z,98197.03
2023-03-26T13:31:22.556Z,98198.81
2023-03-26T13:32:37.587Z,98189.28
2023-03-26T13:33:51.280Z,98186.75
2023-03-26T13:35:06.553Z,98185.09
2023-03-26T13:36:24.189Z,98186.00
2023-03-26T13:37:36.440Z,98183.44
2023-03-26T13:38:58.952Z,98191.28
2023-03-26T13:40:17.570Z,98188.69
2023-03-26T13:41:31.719Z,98182.66
2023-03-26T13:42:48.201Z,98181.75